sensor_id;sensor_type;location;lat;lon;timestamp;P1;durP1;ratioP1;P2;durP2;ratioP2
9248;SDS011;4660;41.768;26.198;2024-03-17T00:02:23;24.03;;;17.60;;
9248;SDS011;4660;41.768;26.198;2024-03-17T00:04:49;27.30;;;17.00;;
9248;SDS011;4660;41.768;26.198;2024-03-17T00:07:14;25.73;;;17.37;;
9248;SDS011;4660;41.768;26.198;2024-03-17T00:09:40;28.97;;;17.27;;
9248;SDS011;4660;41.768;26.198;2024-03-17T00:12:06;23.93;;;16.10;;
9248;SDS011;4660;41.768;26.198;2024-03-17T00:14:36;24.13;;;15.97;;
9248;SDS011;4660;41.768;26.198;2024-03-17T00:17:02;23.03;;;15.57;;
9248;SDS011;4660;41.768;26.198;2024-03-17T00:19:28;25.50;;;16.10;;
9248;SDS011;4660;41.768;26.198;2024-03-17T00:21:54;23.10;;;15.17;;
9248;SDS011;4660;41.768;26.198;2024-03-17T00:24:19;22.37;;;14.67;;
9248;SDS011;4660;41.768;26.198;2024-03-17T00:26:48;31.23;;;17.93;;
9248;SDS011;4660;41.768;26.198;2024-03-17T00:29:16;27.67;;;16.50;;
9248;SDS011;4660;41.768;26.198;2024-03-17T00:31:42;27.83;;;15.97;;
9248;SDS011;4660;41.768;26.198;2024-03-17T00:34:07;25.80;;;15.73;;
9248;SDS011;4660;41.768;26.198;2024-03-17T00:36:34;23.27;;;14.87;;
9248;SDS011;4660;41.768;26.198;2024-03-17T00:38:59;22.63;;;15.60;;
9248;SDS011;4660;41.768;26.198;2024-03-17T00:41:25;23.57;;;17.07;;
9248;SDS011;4660;41.768;26.198;2024-03-17T00:43:51;27.53;;;17.77;;
9248;SDS011;4660;41.768;26.198;2024-03-17T00:46:17;24.77;;;17.43;;
9248;SDS011;4660;41.768;26.198;2024-03-17T00:48:49;25.57;;;17.57;;
9248;SDS011;4660;41.768;26.198;2024-03-17T00:51:15;23.90;;;16.57;;
9248;SDS011;4660;41.768;26.198;2024-03-17T00:53:41;26.80;;;17.80;;
9248;SDS011;4660;41.768;26.198;2024-03-17T00:56:06;27.17;;;17.40;;
9248;SDS011;4660;41.768;26.198;2024-03-17T00:58:32;25.53;;;18.93;;
9248;SDS011;4660;41.768;26.198;2024-03-17T01:00:58;25.23;;;18.03;;
9248;SDS011;4660;41.768;26.198;2024-03-17T01:03:23;27.07;;;18.10;;
9248;SDS011;4660;41.768;26.198;2024-03-17T01:05:49;26.07;;;19.47;;
9248;SDS011;4660;41.768;26.198;2024-03-17T01:08:17;30.87;;;20.90;;
9248;SDS011;4660;41.768;26.198;2024-03-17T01:10:44;28.73;;;20.43;;
9248;SDS011;4660;41.768;26.198;2024-03-17T01:13:10;30.53;;;19.90;;
9248;SDS011;4660;41.768;26.198;2024-03-17T01:15:36;28.43;;;20.00;;
9248;SDS011;4660;41.768;26.198;2024-03-17T01:18:06;29.57;;;20.47;;
9248;SDS011;4660;41.768;26.198;2024-03-17T01:20:32;30.03;;;21.30;;
9248;SDS011;4660;41.768;26.198;2024-03-17T01:23:01;29.13;;;18.97;;
9248;SDS011;4660;41.768;26.198;2024-03-17T01:25:27;29.63;;;18.33;;
9248;SDS011;4660;41.768;26.198;2024-03-17T01:27:54;30.13;;;19.20;;
9248;SDS011;4660;41.768;26.198;2024-03-17T01:30:20;30.70;;;19.27;;
9248;SDS011;4660;41.768;26.198;2024-03-17T01:32:46;29.57;;;18.67;;
9248;SDS011;4660;41.768;26.198;2024-03-17T01:35:12;28.97;;;20.50;;
9248;SDS011;4660;41.768;26.198;2024-03-17T01:37:38;27.73;;;18.10;;
9248;SDS011;4660;41.768;26.198;2024-03-17T01:40:05;31.63;;;18.73;;
9248;SDS011;4660;41.768;26.198;2024-03-17T01:42:40;28.50;;;17.40;;
9248;SDS011;4660;41.768;26.198;2024-03-17T01:47:55;27.30;;;17.13;;
9248;SDS011;4660;41.768;26.198;2024-03-17T01:50:25;28.10;;;17.40;;
9248;SDS011;4660;41.768;26.198;2024-03-17T01:52:54;24.93;;;16.53;;
9248;SDS011;4660;41.768;26.198;2024-03-17T01:55:25;27.60;;;18.17;;
9248;SDS011;4660;41.768;26.198;2024-03-17T01:57:52;33.20;;;20.03;;
9248;SDS011;4660;41.768;26.198;2024-03-17T02:00:18;31.57;;;17.70;;
9248;SDS011;4660;41.768;26.198;2024-03-17T02:02:43;30.70;;;18.67;;
9248;SDS011;4660;41.768;26.198;2024-03-17T02:05:09;26.67;;;16.90;;
9248;SDS011;4660;41.768;26.198;2024-03-17T02:07:35;31.93;;;21.03;;
9248;SDS011;4660;41.768;26.198;2024-03-17T02:10:01;29.83;;;19.57;;
9248;SDS011;4660;41.768;26.198;2024-03-17T02:12:29;30.43;;;18.67;;
9248;SDS011;4660;41.768;26.198;2024-03-17T02:14:56;28.30;;;16.67;;
9248;SDS011;4660;41.768;26.198;2024-03-17T02:17:23;22.50;;;16.43;;
9248;SDS011;4660;41.768;26.198;2024-03-17T02:19:50;24.10;;;14.90;;
9248;SDS011;4660;41.768;26.198;2024-03-17T02:22:16;24.47;;;16.13;;
9248;SDS011;4660;41.768;26.198;2024-03-17T02:24:42;21.67;;;14.80;;
9248;SDS011;4660;41.768;26.198;2024-03-17T02:27:11;23.63;;;15.13;;
9248;SDS011;4660;41.768;26.198;2024-03-17T02:29:37;29.50;;;16.23;;
9248;SDS011;4660;41.768;26.198;2024-03-17T02:32:03;25.63;;;16.40;;
9248;SDS011;4660;41.768;26.198;2024-03-17T02:34:35;24.77;;;16.30;;
9248;SDS011;4660;41.768;26.198;2024-03-17T02:37:03;30.50;;;16.70;;
9248;SDS011;4660;41.768;26.198;2024-03-17T02:39:29;28.33;;;17.83;;
9248;SDS011;4660;41.768;26.198;2024-03-17T02:42:06;27.13;;;15.93;;
9248;SDS011;4660;41.768;26.198;2024-03-17T02:44:34;29.10;;;17.37;;
9248;SDS011;4660;41.768;26.198;2024-03-17T02:47:03;28.67;;;18.00;;
9248;SDS011;4660;41.768;26.198;2024-03-17T02:49:29;24.70;;;16.20;;
9248;SDS011;4660;41.768;26.198;2024-03-17T02:52:07;28.87;;;16.23;;
9248;SDS011;4660;41.768;26.198;2024-03-17T02:54:37;24.37;;;15.80;;
9248;SDS011;4660;41.768;26.198;2024-03-17T02:57:03;26.40;;;16.30;;
9248;SDS011;4660;41.768;26.198;2024-03-17T02:59:29;28.63;;;15.33;;
9248;SDS011;4660;41.768;26.198;2024-03-17T03:01:56;22.43;;;15.67;;
9248;SDS011;4660;41.768;26.198;2024-03-17T03:04:22;24.37;;;16.13;;
9248;SDS011;4660;41.768;26.198;2024-03-17T03:06:47;21.30;;;15.17;;
9248;SDS011;4660;41.768;26.198;2024-03-17T03:09:13;25.47;;;16.07;;
9248;SDS011;4660;41.768;26.198;2024-03-17T03:11:41;23.00;;;14.80;;
9248;SDS011;4660;41.768;26.198;2024-03-17T03:14:09;30.87;;;17.73;;
9248;SDS011;4660;41.768;26.198;2024-03-17T03:16:35;29.30;;;16.60;;
9248;SDS011;4660;41.768;26.198;2024-03-17T03:19:00;25.87;;;15.67;;
9248;SDS011;4660;41.768;26.198;2024-03-17T03:21:26;23.60;;;15.87;;
9248;SDS011;4660;41.768;26.198;2024-03-17T03:23:51;27.73;;;16.73;;
9248;SDS011;4660;41.768;26.198;2024-03-17T03:26:19;32.83;;;16.40;;
9248;SDS011;4660;41.768;26.198;2024-03-17T03:28:45;24.93;;;16.00;;
9248;SDS011;4660;41.768;26.198;2024-03-17T03:31:11;29.93;;;17.00;;
9248;SDS011;4660;41.768;26.198;2024-03-17T03:33:39;25.00;;;16.63;;
9248;SDS011;4660;41.768;26.198;2024-03-17T03:36:11;25.10;;;15.77;;
9248;SDS011;4660;41.768;26.198;2024-03-17T03:38:38;28.53;;;17.83;;
9248;SDS011;4660;41.768;26.198;2024-03-17T03:41:10;26.07;;;17.83;;
9248;SDS011;4660;41.768;26.198;2024-03-17T03:43:38;27.73;;;17.13;;
9248;SDS011;4660;41.768;26.198;2024-03-17T03:46:04;27.73;;;16.90;;
9248;SDS011;4660;41.768;26.198;2024-03-17T03:48:31;29.97;;;17.87;;
9248;SDS011;4660;41.768;26.198;2024-03-17T03:50:57;23.63;;;15.80;;
9248;SDS011;4660;41.768;26.198;2024-03-17T03:53:24;24.57;;;15.83;;
9248;SDS011;4660;41.768;26.198;2024-03-17T03:55:49;20.23;;;12.83;;
9248;SDS011;4660;41.768;26.198;2024-03-17T03:58:15;15.47;;;11.87;;
9248;SDS011;4660;41.768;26.198;2024-03-17T04:00:41;17.50;;;11.40;;
9248;SDS011;4660;41.768;26.198;2024-03-17T04:03:07;21.80;;;14.17;;
9248;SDS011;4660;41.768;26.198;2024-03-17T04:05:32;30.70;;;19.70;;
9248;SDS011;4660;41.768;26.198;2024-03-17T04:07:59;27.10;;;19.87;;
9248;SDS011;4660;41.768;26.198;2024-03-17T04:10:25;26.10;;;19.07;;
9248;SDS011;4660;41.768;26.198;2024-03-17T04:12:51;21.70;;;13.97;;
9248;SDS011;4660;41.768;26.198;2024-03-17T04:15:17;23.47;;;17.00;;
9248;SDS011;4660;41.768;26.198;2024-03-17T04:17:43;22.77;;;16.53;;
9248;SDS011;4660;41.768;26.198;2024-03-17T04:20:09;32.87;;;19.03;;
9248;SDS011;4660;41.768;26.198;2024-03-17T04:22:38;38.33;;;20.13;;
9248;SDS011;4660;41.768;26.198;2024-03-17T04:25:04;32.63;;;19.87;;
9248;SDS011;4660;41.768;26.198;2024-03-17T04:27:29;29.73;;;17.63;;
9248;SDS011;4660;41.768;26.198;2024-03-17T04:29:56;26.67;;;16.67;;
9248;SDS011;4660;41.768;26.198;2024-03-17T04:32:23;27.13;;;17.23;;
9248;SDS011;4660;41.768;26.198;2024-03-17T04:34:49;26.03;;;16.57;;
9248;SDS011;4660;41.768;26.198;2024-03-17T04:37:15;26.73;;;17.33;;
9248;SDS011;4660;41.768;26.198;2024-03-17T04:39:42;27.13;;;16.17;;
9248;SDS011;4660;41.768;26.198;2024-03-17T04:42:10;28.63;;;17.27;;
9248;SDS011;4660;41.768;26.198;2024-03-17T04:44:42;27.53;;;16.97;;
9248;SDS011;4660;41.768;26.198;2024-03-17T04:47:09;24.30;;;17.23;;
9248;SDS011;4660;41.768;26.198;2024-03-17T04:49:39;32.57;;;18.10;;
9248;SDS011;4660;41.768;26.198;2024-03-17T04:52:06;27.90;;;17.40;;
9248;SDS011;4660;41.768;26.198;2024-03-17T04:54:33;30.83;;;18.27;;
9248;SDS011;4660;41.768;26.198;2024-03-17T04:56:59;29.43;;;18.27;;
9248;SDS011;4660;41.768;26.198;2024-03-17T04:59:25;25.30;;;17.13;;
9248;SDS011;4660;41.768;26.198;2024-03-17T05:01:51;27.47;;;18.53;;
9248;SDS011;4660;41.768;26.198;2024-03-17T05:04:17;27.77;;;17.73;;
9248;SDS011;4660;41.768;26.198;2024-03-17T05:06:43;28.63;;;18.93;;
9248;SDS011;4660;41.768;26.198;2024-03-17T05:09:15;30.63;;;20.53;;
9248;SDS011;4660;41.768;26.198;2024-03-17T05:11:41;33.80;;;22.13;;
9248;SDS011;4660;41.768;26.198;2024-03-17T05:14:07;33.00;;;20.03;;
9248;SDS011;4660;41.768;26.198;2024-03-17T05:16:33;33.37;;;20.27;;
9248;SDS011;4660;41.768;26.198;2024-03-17T05:18:59;31.70;;;20.07;;
9248;SDS011;4660;41.768;26.198;2024-03-17T05:21:25;33.33;;;20.67;;
9248;SDS011;4660;41.768;26.198;2024-03-17T05:23:51;37.80;;;22.27;;
9248;SDS011;4660;41.768;26.198;2024-03-17T05:26:17;44.10;;;27.37;;
9248;SDS011;4660;41.768;26.198;2024-03-17T05:28:43;40.07;;;27.10;;
9248;SDS011;4660;41.768;26.198;2024-03-17T05:31:12;37.90;;;26.80;;
9248;SDS011;4660;41.768;26.198;2024-03-17T05:33:43;44.23;;;25.90;;
9248;SDS011;4660;41.768;26.198;2024-03-17T05:36:09;35.67;;;23.17;;
9248;SDS011;4660;41.768;26.198;2024-03-17T05:38:34;38.97;;;22.67;;
9248;SDS011;4660;41.768;26.198;2024-03-17T05:41:00;35.97;;;23.83;;
9248;SDS011;4660;41.768;26.198;2024-03-17T05:43:27;29.03;;;19.13;;
9248;SDS011;4660;41.768;26.198;2024-03-17T05:45:58;28.17;;;17.93;;
9248;SDS011;4660;41.768;26.198;2024-03-17T05:48:26;28.07;;;18.70;;
9248;SDS011;4660;41.768;26.198;2024-03-17T05:50:52;31.37;;;20.17;;
9248;SDS011;4660;41.768;26.198;2024-03-17T05:53:18;30.30;;;19.97;;
9248;SDS011;4660;41.768;26.198;2024-03-17T05:55:44;31.30;;;21.00;;
9248;SDS011;4660;41.768;26.198;2024-03-17T05:58:10;30.37;;;19.73;;
9248;SDS011;4660;41.768;26.198;2024-03-17T06:00:36;33.00;;;20.37;;
9248;SDS011;4660;41.768;26.198;2024-03-17T06:03:02;35.50;;;20.93;;
9248;SDS011;4660;41.768;26.198;2024-03-17T06:05:31;32.87;;;20.47;;
9248;SDS011;4660;41.768;26.198;2024-03-17T06:07:58;30.50;;;21.43;;
9248;SDS011;4660;41.768;26.198;2024-03-17T06:10:23;28.87;;;19.90;;
9248;SDS011;4660;41.768;26.198;2024-03-17T06:12:52;24.87;;;17.97;;
9248;SDS011;4660;41.768;26.198;2024-03-17T06:15:17;25.77;;;18.33;;
9248;SDS011;4660;41.768;26.198;2024-03-17T06:17:43;28.23;;;17.77;;
9248;SDS011;4660;41.768;26.198;2024-03-17T06:20:08;28.80;;;18.57;;
9248;SDS011;4660;41.768;26.198;2024-03-17T06:22:39;28.20;;;19.07;;
9248;SDS011;4660;41.768;26.198;2024-03-17T06:25:05;31.40;;;20.53;;
9248;SDS011;4660;41.768;26.198;2024-03-17T06:27:31;28.37;;;18.93;;
9248;SDS011;4660;41.768;26.198;2024-03-17T06:29:59;26.80;;;17.13;;
9248;SDS011;4660;41.768;26.198;2024-03-17T06:32:29;25.57;;;18.20;;
9248;SDS011;4660;41.768;26.198;2024-03-17T06:34:58;29.57;;;18.67;;
9248;SDS011;4660;41.768;26.198;2024-03-17T06:37:27;27.63;;;18.63;;
9248;SDS011;4660;41.768;26.198;2024-03-17T06:39:52;24.80;;;17.80;;
9248;SDS011;4660;41.768;26.198;2024-03-17T06:42:18;26.20;;;16.87;;
9248;SDS011;4660;41.768;26.198;2024-03-17T06:44:44;26.90;;;17.50;;
9248;SDS011;4660;41.768;26.198;2024-03-17T06:47:10;27.17;;;17.07;;
9248;SDS011;4660;41.768;26.198;2024-03-17T06:49:35;47.60;;;29.53;;
9248;SDS011;4660;41.768;26.198;2024-03-17T06:52:01;29.00;;;18.83;;
9248;SDS011;4660;41.768;26.198;2024-03-17T06:54:27;28.80;;;20.13;;
9248;SDS011;4660;41.768;26.198;2024-03-17T06:56:52;29.93;;;19.53;;
9248;SDS011;4660;41.768;26.198;2024-03-17T06:59:18;30.33;;;20.27;;
9248;SDS011;4660;41.768;26.198;2024-03-17T07:01:46;31.43;;;21.53;;
9248;SDS011;4660;41.768;26.198;2024-03-17T07:04:12;31.73;;;20.77;;
9248;SDS011;4660;41.768;26.198;2024-03-17T07:06:38;42.73;;;26.30;;
9248;SDS011;4660;41.768;26.198;2024-03-17T07:09:04;39.70;;;24.57;;
9248;SDS011;4660;41.768;26.198;2024-03-17T07:11:30;56.43;;;40.47;;
9248;SDS011;4660;41.768;26.198;2024-03-17T07:13:56;57.60;;;38.20;;
9248;SDS011;4660;41.768;26.198;2024-03-17T07:16:22;58.47;;;39.17;;
9248;SDS011;4660;41.768;26.198;2024-03-17T07:18:50;47.30;;;32.00;;
9248;SDS011;4660;41.768;26.198;2024-03-17T07:21:15;53.87;;;35.27;;
9248;SDS011;4660;41.768;26.198;2024-03-17T07:23:41;47.17;;;31.53;;
9248;SDS011;4660;41.768;26.198;2024-03-17T07:26:06;32.70;;;22.17;;
9248;SDS011;4660;41.768;26.198;2024-03-17T07:28:34;35.47;;;23.63;;
9248;SDS011;4660;41.768;26.198;2024-03-17T07:31:00;30.50;;;21.40;;
9248;SDS011;4660;41.768;26.198;2024-03-17T07:33:26;34.07;;;21.37;;
9248;SDS011;4660;41.768;26.198;2024-03-17T07:35:52;39.60;;;23.53;;
9248;SDS011;4660;41.768;26.198;2024-03-17T07:38:25;35.23;;;23.27;;
9248;SDS011;4660;41.768;26.198;2024-03-17T07:43:33;46.63;;;29.20;;
9248;SDS011;4660;41.768;26.198;2024-03-17T07:46:01;51.47;;;35.57;;
9248;SDS011;4660;41.768;26.198;2024-03-17T07:48:31;52.93;;;35.57;;
9248;SDS011;4660;41.768;26.198;2024-03-17T07:50:59;45.37;;;31.97;;
9248;SDS011;4660;41.768;26.198;2024-03-17T07:53:28;43.53;;;32.20;;
9248;SDS011;4660;41.768;26.198;2024-03-17T07:56:01;47.80;;;32.43;;
9248;SDS011;4660;41.768;26.198;2024-03-17T07:58:35;42.17;;;29.20;;
9248;SDS011;4660;41.768;26.198;2024-03-17T08:01:04;43.03;;;29.37;;
9248;SDS011;4660;41.768;26.198;2024-03-17T08:03:31;42.43;;;28.63;;
9248;SDS011;4660;41.768;26.198;2024-03-17T08:05:59;45.33;;;31.87;;
9248;SDS011;4660;41.768;26.198;2024-03-17T08:08:27;45.17;;;29.67;;
9248;SDS011;4660;41.768;26.198;2024-03-17T08:10:53;42.50;;;28.90;;
9248;SDS011;4660;41.768;26.198;2024-03-17T08:13:19;40.23;;;27.60;;
9248;SDS011;4660;41.768;26.198;2024-03-17T08:15:47;40.17;;;27.97;;
9248;SDS011;4660;41.768;26.198;2024-03-17T08:18:20;41.47;;;28.70;;
9248;SDS011;4660;41.768;26.198;2024-03-17T08:20:46;38.80;;;27.60;;
9248;SDS011;4660;41.768;26.198;2024-03-17T08:23:12;40.90;;;26.90;;
9248;SDS011;4660;41.768;26.198;2024-03-17T08:25:37;37.93;;;27.07;;
9248;SDS011;4660;41.768;26.198;2024-03-17T08:28:03;41.50;;;26.70;;
9248;SDS011;4660;41.768;26.198;2024-03-17T08:30:29;39.57;;;26.90;;
9248;SDS011;4660;41.768;26.198;2024-03-17T08:32:58;37.50;;;26.43;;
9248;SDS011;4660;41.768;26.198;2024-03-17T08:35:23;38.07;;;25.90;;
9248;SDS011;4660;41.768;26.198;2024-03-17T08:37:49;36.40;;;23.77;;
9248;SDS011;4660;41.768;26.198;2024-03-17T08:40:21;35.70;;;25.53;;
9248;SDS011;4660;41.768;26.198;2024-03-17T08:42:50;36.00;;;25.43;;
9248;SDS011;4660;41.768;26.198;2024-03-17T08:45:16;35.83;;;24.63;;
9248;SDS011;4660;41.768;26.198;2024-03-17T08:47:41;32.40;;;22.97;;
9248;SDS011;4660;41.768;26.198;2024-03-17T08:50:07;37.00;;;24.43;;
9248;SDS011;4660;41.768;26.198;2024-03-17T08:52:34;31.57;;;21.83;;
9248;SDS011;4660;41.768;26.198;2024-03-17T08:55:05;30.30;;;21.80;;
9248;SDS011;4660;41.768;26.198;2024-03-17T08:57:35;34.90;;;22.47;;
9248;SDS011;4660;41.768;26.198;2024-03-17T09:00:00;29.63;;;22.23;;
9248;SDS011;4660;41.768;26.198;2024-03-17T09:02:26;31.77;;;23.30;;
9248;SDS011;4660;41.768;26.198;2024-03-17T09:04:51;32.83;;;21.80;;
9248;SDS011;4660;41.768;26.198;2024-03-17T09:07:17;32.63;;;21.10;;
9248;SDS011;4660;41.768;26.198;2024-03-17T09:09:43;34.20;;;22.00;;
9248;SDS011;4660;41.768;26.198;2024-03-17T09:12:08;31.70;;;21.43;;
9248;SDS011;4660;41.768;26.198;2024-03-17T09:14:34;30.27;;;21.47;;
9248;SDS011;4660;41.768;26.198;2024-03-17T09:17:00;27.97;;;20.23;;
9248;SDS011;4660;41.768;26.198;2024-03-17T09:19:26;26.83;;;18.80;;
9248;SDS011;4660;41.768;26.198;2024-03-17T09:21:54;22.57;;;17.07;;
9248;SDS011;4660;41.768;26.198;2024-03-17T09:24:19;24.67;;;18.90;;
9248;SDS011;4660;41.768;26.198;2024-03-17T09:26:45;27.80;;;19.57;;
9248;SDS011;4660;41.768;26.198;2024-03-17T09:29:11;26.03;;;18.67;;
9248;SDS011;4660;41.768;26.198;2024-03-17T09:31:36;27.63;;;17.93;;
9248;SDS011;4660;41.768;26.198;2024-03-17T09:34:02;24.07;;;17.57;;
9248;SDS011;4660;41.768;26.198;2024-03-17T09:36:28;23.57;;;17.77;;
9248;SDS011;4660;41.768;26.198;2024-03-17T09:38:53;24.37;;;18.20;;
9248;SDS011;4660;41.768;26.198;2024-03-17T09:41:22;22.73;;;17.60;;
9248;SDS011;4660;41.768;26.198;2024-03-17T09:43:55;24.37;;;18.13;;
9248;SDS011;4660;41.768;26.198;2024-03-17T09:46:25;23.93;;;18.43;;
9248;SDS011;4660;41.768;26.198;2024-03-17T09:48:53;29.57;;;21.67;;
9248;SDS011;4660;41.768;26.198;2024-03-17T09:51:20;25.13;;;18.47;;
9248;SDS011;4660;41.768;26.198;2024-03-17T09:53:46;24.13;;;17.93;;
9248;SDS011;4660;41.768;26.198;2024-03-17T09:56:13;24.93;;;18.43;;
9248;SDS011;4660;41.768;26.198;2024-03-17T09:58:44;26.57;;;18.60;;
9248;SDS011;4660;41.768;26.198;2024-03-17T10:01:13;26.47;;;17.67;;
9248;SDS011;4660;41.768;26.198;2024-03-17T10:06:21;22.47;;;16.93;;
9248;SDS011;4660;41.768;26.198;2024-03-17T10:08:54;20.30;;;16.37;;
9248;SDS011;4660;41.768;26.198;2024-03-17T10:11:24;21.80;;;17.20;;
9248;SDS011;4660;41.768;26.198;2024-03-17T10:14:07;22.63;;;15.70;;
9248;SDS011;4660;41.768;26.198;2024-03-17T10:16:34;22.97;;;15.37;;
9248;SDS011;4660;41.768;26.198;2024-03-17T10:21:40;22.83;;;16.37;;
9248;SDS011;4660;41.768;26.198;2024-03-17T10:24:20;22.00;;;17.13;;
9248;SDS011;4660;41.768;26.198;2024-03-17T10:26:51;22.63;;;16.73;;
9248;SDS011;4660;41.768;26.198;2024-03-17T10:29:20;20.83;;;14.80;;
9248;SDS011;4660;41.768;26.198;2024-03-17T10:31:51;20.40;;;15.23;;
9248;SDS011;4660;41.768;26.198;2024-03-17T10:34:29;19.70;;;15.27;;
9248;SDS011;4660;41.768;26.198;2024-03-17T10:39:51;18.40;;;14.37;;
9248;SDS011;4660;41.768;26.198;2024-03-17T10:42:26;18.70;;;14.93;;
9248;SDS011;4660;41.768;26.198;2024-03-17T10:44:57;18.70;;;15.13;;
9248;SDS011;4660;41.768;26.198;2024-03-17T10:47:24;18.57;;;14.10;;
9248;SDS011;4660;41.768;26.198;2024-03-17T10:49:52;15.33;;;12.57;;
9248;SDS011;4660;41.768;26.198;2024-03-17T10:52:19;19.57;;;13.27;;
9248;SDS011;4660;41.768;26.198;2024-03-17T10:54:47;12.53;;;10.53;;
9248;SDS011;4660;41.768;26.198;2024-03-17T10:59:54;11.27;;;9.10;;
9248;SDS011;4660;41.768;26.198;2024-03-17T11:02:24;9.50;;;7.40;;
9248;SDS011;4660;41.768;26.198;2024-03-17T11:04:57;8.93;;;7.70;;
9248;SDS011;4660;41.768;26.198;2024-03-17T11:07:24;9.80;;;7.13;;
9248;SDS011;4660;41.768;26.198;2024-03-17T11:09:52;7.53;;;6.27;;
9248;SDS011;4660;41.768;26.198;2024-03-17T11:17:44;7.70;;;6.90;;
9248;SDS011;4660;41.768;26.198;2024-03-17T11:20:23;6.43;;;5.20;;
9248;SDS011;4660;41.768;26.198;2024-03-17T11:22:51;10.70;;;7.53;;
9248;SDS011;4660;41.768;26.198;2024-03-17T11:27:58;14.07;;;12.20;;
9248;SDS011;4660;41.768;26.198;2024-03-17T11:47:05;8.50;;;7.47;;
9248;SDS011;4660;41.768;26.198;2024-03-17T11:49:32;7.43;;;6.43;;
9248;SDS011;4660;41.768;26.198;2024-03-17T11:52:03;6.25;;;5.63;;
9248;SDS011;4660;41.768;26.198;2024-03-17T11:54:37;5.67;;;5.00;;
9248;SDS011;4660;41.768;26.198;2024-03-17T11:57:09;11.95;;;10.27;;
9248;SDS011;4660;41.768;26.198;2024-03-17T11:59:39;10.67;;;8.97;;
9248;SDS011;4660;41.768;26.198;2024-03-17T12:04:56;3.80;;;3.50;;
9248;SDS011;4660;41.768;26.198;2024-03-17T12:07:23;3.03;;;2.80;;
9248;SDS011;4660;41.768;26.198;2024-03-17T12:09:50;5.00;;;4.60;;
9248;SDS011;4660;41.768;26.198;2024-03-17T12:12:19;3.95;;;3.65;;
9248;SDS011;4660;41.768;26.198;2024-03-17T12:14:47;4.20;;;3.80;;
9248;SDS011;4660;41.768;26.198;2024-03-17T12:17:14;5.28;;;4.32;;
9248;SDS011;4660;41.768;26.198;2024-03-17T12:19:45;12.75;;;10.63;;
9248;SDS011;4660;41.768;26.198;2024-03-17T12:22:14;19.27;;;11.77;;
9248;SDS011;4660;41.768;26.198;2024-03-17T12:24:57;14.85;;;10.35;;
9248;SDS011;4660;41.768;26.198;2024-03-17T12:27:25;9.63;;;6.90;;
9248;SDS011;4660;41.768;26.198;2024-03-17T12:29:52;9.55;;;6.75;;
9248;SDS011;4660;41.768;26.198;2024-03-17T12:32:19;4.32;;;3.92;;
9248;SDS011;4660;41.768;26.198;2024-03-17T12:34:53;8.48;;;5.97;;
9248;SDS011;4660;41.768;26.198;2024-03-17T12:37:24;7.90;;;4.43;;
9248;SDS011;4660;41.768;26.198;2024-03-17T12:39:56;12.35;;;9.93;;
9248;SDS011;4660;41.768;26.198;2024-03-17T12:42:24;6.07;;;4.75;;
9248;SDS011;4660;41.768;26.198;2024-03-17T12:44:53;3.90;;;3.60;;
9248;SDS011;4660;41.768;26.198;2024-03-17T12:47:20;5.80;;;4.00;;
9248;SDS011;4660;41.768;26.198;2024-03-17T12:49:53;3.83;;;3.53;;
9248;SDS011;4660;41.768;26.198;2024-03-17T12:52:24;5.87;;;4.63;;
9248;SDS011;4660;41.768;26.198;2024-03-17T12:55:01;9.80;;;7.28;;
9248;SDS011;4660;41.768;26.198;2024-03-17T12:57:49;17.08;;;13.75;;
9248;SDS011;4660;41.768;26.198;2024-03-17T13:00:34;4.88;;;4.47;;
9248;SDS011;4660;41.768;26.198;2024-03-17T13:05:26;11.57;;;9.63;;
9248;SDS011;4660;41.768;26.198;2024-03-17T13:07:53;6.15;;;4.97;;
9248;SDS011;4660;41.768;26.198;2024-03-17T13:10:21;4.82;;;4.43;;
9248;SDS011;4660;41.768;26.198;2024-03-17T13:12:48;17.65;;;13.70;;
9248;SDS011;4660;41.768;26.198;2024-03-17T13:15:23;7.72;;;5.15;;
9248;SDS011;4660;41.768;26.198;2024-03-17T13:17:48;5.90;;;5.32;;
9248;SDS011;4660;41.768;26.198;2024-03-17T13:20:17;5.93;;;5.32;;
9248;SDS011;4660;41.768;26.198;2024-03-17T13:22:43;7.10;;;5.15;;
9248;SDS011;4660;41.768;26.198;2024-03-17T13:25:16;8.85;;;7.38;;
9248;SDS011;4660;41.768;26.198;2024-03-17T13:27:43;7.43;;;5.40;;
9248;SDS011;4660;41.768;26.198;2024-03-17T13:30:12;5.22;;;4.72;;
9248;SDS011;4660;41.768;26.198;2024-03-17T13:32:39;6.45;;;5.85;;
9248;SDS011;4660;41.768;26.198;2024-03-17T13:35:06;6.20;;;4.72;;
9248;SDS011;4660;41.768;26.198;2024-03-17T13:37:33;19.95;;;15.23;;
9248;SDS011;4660;41.768;26.198;2024-03-17T13:40:00;10.88;;;8.43;;
9248;SDS011;4660;41.768;26.198;2024-03-17T13:42:28;8.45;;;5.95;;
9248;SDS011;4660;41.768;26.198;2024-03-17T13:44:53;6.90;;;6.20;;
9248;SDS011;4660;41.768;26.198;2024-03-17T13:47:19;6.72;;;6.05;;
9248;SDS011;4660;41.768;26.198;2024-03-17T13:49:44;14.73;;;11.52;;
9248;SDS011;4660;41.768;26.198;2024-03-17T13:52:11;17.88;;;12.60;;
9248;SDS011;4660;41.768;26.198;2024-03-17T13:54:37;9.25;;;7.72;;
9248;SDS011;4660;41.768;26.198;2024-03-17T13:57:03;6.72;;;6.03;;
9248;SDS011;4660;41.768;26.198;2024-03-17T13:59:30;38.28;;;19.13;;
9248;SDS011;4660;41.768;26.198;2024-03-17T14:01:55;5.72;;;5.13;;
9248;SDS011;4660;41.768;26.198;2024-03-17T14:04:21;8.75;;;7.20;;
9248;SDS011;4660;41.768;26.198;2024-03-17T14:06:46;6.60;;;5.93;;
9248;SDS011;4660;41.768;26.198;2024-03-17T14:09:15;17.25;;;14.75;;
9248;SDS011;4660;41.768;26.198;2024-03-17T14:11:43;11.82;;;10.27;;
9248;SDS011;4660;41.768;26.198;2024-03-17T14:14:10;4.65;;;4.25;;
9248;SDS011;4660;41.768;26.198;2024-03-17T14:16:35;10.35;;;9.18;;
9248;SDS011;4660;41.768;26.198;2024-03-17T14:19:01;13.98;;;11.57;;
9248;SDS011;4660;41.768;26.198;2024-03-17T14:21:27;6.47;;;5.88;;
9248;SDS011;4660;41.768;26.198;2024-03-17T14:23:53;16.23;;;13.05;;
9248;SDS011;4660;41.768;26.198;2024-03-17T14:26:20;16.73;;;14.57;;
9248;SDS011;4660;41.768;26.198;2024-03-17T14:28:48;6.88;;;6.18;;
9248;SDS011;4660;41.768;26.198;2024-03-17T14:31:22;5.72;;;4.15;;
9248;SDS011;4660;41.768;26.198;2024-03-17T14:33:47;7.97;;;6.82;;
9248;SDS011;4660;41.768;26.198;2024-03-17T14:36:13;15.65;;;11.82;;
9248;SDS011;4660;41.768;26.198;2024-03-17T14:38:38;6.03;;;5.28;;
9248;SDS011;4660;41.768;26.198;2024-03-17T14:41:04;11.00;;;9.75;;
9248;SDS011;4660;41.768;26.198;2024-03-17T14:43:31;13.80;;;10.85;;
9248;SDS011;4660;41.768;26.198;2024-03-17T14:45:56;12.50;;;10.85;;
9248;SDS011;4660;41.768;26.198;2024-03-17T14:48:22;9.63;;;8.18;;
9248;SDS011;4660;41.768;26.198;2024-03-17T14:50:48;72.30;;;32.40;;
9248;SDS011;4660;41.768;26.198;2024-03-17T14:53:14;5.00;;;4.53;;
9248;SDS011;4660;41.768;26.198;2024-03-17T14:55:39;33.53;;;22.08;;
9248;SDS011;4660;41.768;26.198;2024-03-17T14:58:05;6.65;;;5.03;;
9248;SDS011;4660;41.768;26.198;2024-03-17T15:00:31;4.60;;;4.20;;
9248;SDS011;4660;41.768;26.198;2024-03-17T15:02:57;10.30;;;5.70;;
9248;SDS011;4660;41.768;26.198;2024-03-17T15:05:22;5.40;;;4.90;;
9248;SDS011;4660;41.768;26.198;2024-03-17T15:07:50;6.50;;;5.82;;
9248;SDS011;4660;41.768;26.198;2024-03-17T15:10:16;23.52;;;17.40;;
9248;SDS011;4660;41.768;26.198;2024-03-17T15:12:45;7.65;;;5.82;;
9248;SDS011;4660;41.768;26.198;2024-03-17T15:15:12;6.30;;;4.97;;
9248;SDS011;4660;41.768;26.198;2024-03-17T15:17:38;13.27;;;11.88;;
9248;SDS011;4660;41.768;26.198;2024-03-17T15:20:04;11.93;;;10.70;;
9248;SDS011;4660;41.768;26.198;2024-03-17T15:22:47;14.70;;;12.30;;
9248;SDS011;4660;41.768;26.198;2024-03-17T15:25:14;7.00;;;6.30;;
9248;SDS011;4660;41.768;26.198;2024-03-17T15:27:44;4.40;;;4.00;;
9248;SDS011;4660;41.768;26.198;2024-03-17T15:30:17;6.03;;;5.43;;